sensor_id;sensor_type;location;lat;lon;timestamp;noise_LAeq;noise_LA_min;noise_LA_max;noise_LA01;noise_LA95
81666;Laerm;71083;51.796;10.952;2023-10-09T00:01:39;30.44;28.26;37.45;;
81666;Laerm;71083;51.796;10.952;2023-10-09T00:04:08;57.74;28.44;74.02;;
81666;Laerm;71083;51.796;10.952;2023-10-09T00:06:35;60.29;28.96;76.88;;
81666;Laerm;71083;51.796;10.952;2023-10-09T00:09:04;40.77;28.97;57.45;;
81666;Laerm;71083;51.796;10.952;2023-10-09T00:11:47;48.59;28.40;64.44;;
81666;Laerm;71083;51.796;10.952;2023-10-09T00:14:13;49.85;28.47;66.52;;
81666;Laerm;71083;51.796;10.952;2023-10-09T00:16:40;38.80;29.21;50.57;;
81666;Laerm;71083;51.796;10.952;2023-10-09T00:19:10;53.73;28.87;70.90;;
81666;Laerm;71083;51.796;10.952;2023-10-09T00:21:46;58.43;30.80;75.47;;
81666;Laerm;71083;51.796;10.952;2023-10-09T00:24:12;36.10;30.68;53.33;;
81666;Laerm;71083;51.796;10.952;2023-10-09T00:26:50;33.50;30.71;39.49;;
81666;Laerm;71083;51.796;10.952;2023-10-09T00:29:16;38.83;30.56;50.02;;
81666;Laerm;71083;51.796;10.952;2023-10-09T00:31:51;54.48;31.27;69.69;;
81666;Laerm;71083;51.796;10.952;2023-10-09T00:34:21;37.51;30.09;52.20;;
81666;Laerm;71083;51.796;10.952;2023-10-09T00:36:47;58.35;32.16;74.73;;
81666;Laerm;71083;51.796;10.952;2023-10-09T00:39:16;55.69;29.99;72.41;;
81666;Laerm;71083;51.796;10.952;2023-10-09T00:41:57;38.84;31.92;49.67;;
81666;Laerm;71083;51.796;10.952;2023-10-09T00:44:24;53.42;32.66;69.87;;
81666;Laerm;71083;51.796;10.952;2023-10-09T00:46:49;52.60;33.46;68.61;;
81666;Laerm;71083;51.796;10.952;2023-10-09T00:49:14;33.04;29.28;40.02;;
81666;Laerm;71083;51.796;10.952;2023-10-09T00:51:42;30.43;28.35;35.17;;
81666;Laerm;71083;51.796;10.952;2023-10-09T00:54:14;30.08;28.37;35.16;;
81666;Laerm;71083;51.796;10.952;2023-10-09T00:56:40;33.09;28.37;56.31;;
81666;Laerm;71083;51.796;10.952;2023-10-09T00:59:10;31.70;29.38;38.34;;
81666;Laerm;71083;51.796;10.952;2023-10-09T01:01:45;35.92;29.05;45.83;;
81666;Laerm;71083;51.796;10.952;2023-10-09T01:04:15;32.57;28.75;46.87;;
81666;Laerm;71083;51.796;10.952;2023-10-09T01:06:43;32.39;28.99;42.82;;
81666;Laerm;71083;51.796;10.952;2023-10-09T01:09:10;36.97;29.55;49.19;;
81666;Laerm;71083;51.796;10.952;2023-10-09T01:11:36;31.52;29.74;40.21;;
81666;Laerm;71083;51.796;10.952;2023-10-09T01:14:13;55.61;30.41;72.49;;
81666;Laerm;71083;51.796;10.952;2023-10-09T01:16:38;60.09;30.18;75.55;;
81666;Laerm;71083;51.796;10.952;2023-10-09T01:19:07;47.67;29.42;65.64;;
81666;Laerm;71083;51.796;10.952;2023-10-09T01:21:48;29.88;28.90;32.97;;
81666;Laerm;71083;51.796;10.952;2023-10-09T01:24:15;52.69;29.14;71.06;;
81666;Laerm;71083;51.796;10.952;2023-10-09T01:26:41;55.47;29.43;69.64;;
81666;Laerm;71083;51.796;10.952;2023-10-09T01:29:12;42.25;29.15;53.04;;
81666;Laerm;71083;51.796;10.952;2023-10-09T01:32:01;55.39;29.03;75.11;;
81666;Laerm;71083;51.796;10.952;2023-10-09T01:34:26;59.13;29.37;74.36;;
81666;Laerm;71083;51.796;10.952;2023-10-09T01:37:03;60.20;29.35;77.50;;
81666;Laerm;71083;51.796;10.952;2023-10-09T01:39:30;32.95;28.30;40.62;;
81666;Laerm;71083;51.796;10.952;2023-10-09T01:41:56;38.82;30.37;49.99;;
81666;Laerm;71083;51.796;10.952;2023-10-09T01:44:26;58.01;29.88;75.43;;
81666;Laerm;71083;51.796;10.952;2023-10-09T01:46:53;31.69;28.55;41.44;;
81666;Laerm;71083;51.796;10.952;2023-10-09T01:49:20;61.22;28.43;80.61;;
81666;Laerm;71083;51.796;10.952;2023-10-09T01:51:57;56.93;28.59;70.84;;
81666;Laerm;71083;51.796;10.952;2023-10-09T01:54:32;62.11;29.59;76.32;;
81666;Laerm;71083;51.796;10.952;2023-10-09T01:57:08;62.24;29.59;79.60;;
81666;Laerm;71083;51.796;10.952;2023-10-09T01:59:40;59.93;29.86;77.78;;
81666;Laerm;71083;51.796;10.952;2023-10-09T02:02:12;59.03;29.00;72.99;;
81666;Laerm;71083;51.796;10.952;2023-10-09T02:04:39;58.14;30.32;73.12;;
81666;Laerm;71083;51.796;10.952;2023-10-09T02:07:06;60.72;32.66;75.67;;
81666;Laerm;71083;51.796;10.952;2023-10-09T02:09:33;61.85;34.81;75.57;;
81666;Laerm;71083;51.796;10.952;2023-10-09T02:12:00;59.73;33.89;73.93;;
81666;Laerm;71083;51.796;10.952;2023-10-09T02:14:26;51.99;29.97;67.86;;
81666;Laerm;71083;51.796;10.952;2023-10-09T02:16:51;58.95;30.76;70.97;;
81666;Laerm;71083;51.796;10.952;2023-10-09T02:19:33;61.23;32.78;77.38;;
81666;Laerm;71083;51.796;10.952;2023-10-09T02:22:02;53.61;31.07;69.65;;
81666;Laerm;71083;51.796;10.952;2023-10-09T02:24:37;51.31;31.19;68.33;;
81666;Laerm;71083;51.796;10.952;2023-10-09T02:27:15;64.48;34.66;77.88;;
81666;Laerm;71083;51.796;10.952;2023-10-09T02:29:45;62.84;32.99;75.71;;
81666;Laerm;71083;51.796;10.952;2023-10-09T02:32:12;60.43;36.66;72.75;;
81666;Laerm;71083;51.796;10.952;2023-10-09T02:34:50;63.84;37.87;80.89;;
81666;Laerm;71083;51.796;10.952;2023-10-09T02:37:18;59.27;34.49;76.82;;
81666;Laerm;71083;51.796;10.952;2023-10-09T02:39:48;62.72;36.23;74.10;;
81666;Laerm;71083;51.796;10.952;2023-10-09T02:42:14;57.85;36.48;71.57;;
81666;Laerm;71083;51.796;10.952;2023-10-09T02:44:39;60.02;34.84;72.20;;
81666;Laerm;71083;51.796;10.952;2023-10-09T02:47:11;63.89;35.63;78.28;;
81666;Laerm;71083;51.796;10.952;2023-10-09T02:49:43;59.56;32.50;72.21;;
81666;Laerm;71083;51.796;10.952;2023-10-09T02:52:08;61.72;35.26;74.24;;
81666;Laerm;71083;51.796;10.952;2023-10-09T02:54:35;59.27;34.02;73.41;;
81666;Laerm;71083;51.796;10.952;2023-10-09T02:57:01;56.26;38.97;71.22;;
81666;Laerm;71083;51.796;10.952;2023-10-09T02:59:33;66.14;37.28;79.26;;
81666;Laerm;71083;51.796;10.952;2023-10-09T03:01:58;60.63;34.50;76.37;;
81666;Laerm;71083;51.796;10.952;2023-10-09T03:04:26;56.74;35.95;71.40;;
81666;Laerm;71083;51.796;10.952;2023-10-09T03:06:58;62.80;39.42;73.63;;
81666;Laerm;71083;51.796;10.952;2023-10-09T03:09:24;60.85;40.67;69.23;;
81666;Laerm;71083;51.796;10.952;2023-10-09T03:11:56;63.38;39.70;74.45;;
81666;Laerm;71083;51.796;10.952;2023-10-09T03:14:27;63.89;43.99;74.98;;
81666;Laerm;71083;51.796;10.952;2023-10-09T03:16:54;62.04;38.22;75.60;;
81666;Laerm;71083;51.796;10.952;2023-10-09T03:19:19;63.50;40.94;74.75;;
81666;Laerm;71083;51.796;10.952;2023-10-09T03:22:00;65.89;40.32;79.64;;
81666;Laerm;71083;51.796;10.952;2023-10-09T03:24:31;65.82;40.46;74.85;;
81666;Laerm;71083;51.796;10.952;2023-10-09T03:27:00;66.66;41.49;79.42;;
81666;Laerm;71083;51.796;10.952;2023-10-09T03:29:29;66.63;45.23;76.97;;
81666;Laerm;71083;51.796;10.952;2023-10-09T03:32:03;64.99;40.44;78.73;;
81666;Laerm;71083;51.796;10.952;2023-10-09T03:34:31;66.15;47.88;72.80;;
81666;Laerm;71083;51.796;10.952;2023-10-09T03:36:58;65.83;44.79;74.90;;
81666;Laerm;71083;51.796;10.952;2023-10-09T03:39:34;65.93;48.73;76.33;;
81666;Laerm;71083;51.796;10.952;2023-10-09T03:42:14;65.02;43.08;76.09;;
81666;Laerm;71083;51.796;10.952;2023-10-09T03:44:48;68.05;43.08;82.19;;
81666;Laerm;71083;51.796;10.952;2023-10-09T03:47:32;67.31;44.83;76.27;;
81666;Laerm;71083;51.796;10.952;2023-10-09T03:50:00;67.95;40.99;80.33;;
81666;Laerm;71083;51.796;10.952;2023-10-09T03:52:55;64.42;40.28;75.42;;
81666;Laerm;71083;51.796;10.952;2023-10-09T03:55:28;64.68;44.52;74.38;;
81666;Laerm;71083;51.796;10.952;2023-10-09T03:58:04;64.28;44.42;72.93;;
81666;Laerm;71083;51.796;10.952;2023-10-09T04:00:35;64.86;41.45;75.09;;
81666;Laerm;71083;51.796;10.952;2023-10-09T04:03:17;64.02;44.17;75.12;;
81666;Laerm;71083;51.796;10.952;2023-10-09T04:05:48;66.99;42.77;79.97;;
81666;Laerm;71083;51.796;10.952;2023-10-09T04:08:18;66.84;43.76;78.12;;
81666;Laerm;71083;51.796;10.952;2023-10-09T04:10:58;64.19;41.77;73.50;;
81666;Laerm;71083;51.796;10.952;2023-10-09T04:13:39;66.80;50.34;75.54;;
81666;Laerm;71083;51.796;10.952;2023-10-09T04:16:12;63.88;41.91;72.96;;
81666;Laerm;71083;51.796;10.952;2023-10-09T04:19:00;67.82;47.78;80.08;;
81666;Laerm;71083;51.796;10.952;2023-10-09T04:21:31;66.69;47.02;80.51;;
81666;Laerm;71083;51.796;10.952;2023-10-09T04:24:04;65.71;41.76;77.30;;
81666;Laerm;71083;51.796;10.952;2023-10-09T04:27:00;65.88;50.03;74.70;;
81666;Laerm;71083;51.796;10.952;2023-10-09T04:29:36;68.87;53.41;80.53;;
81666;Laerm;71083;51.796;10.952;2023-10-09T04:32:14;67.86;47.20;75.60;;
81666;Laerm;71083;51.796;10.952;2023-10-09T04:34:42;69.67;50.72;84.69;;
81666;Laerm;71083;51.796;10.952;2023-10-09T04:37:36;66.60;48.11;75.52;;
81666;Laerm;71083;51.796;10.952;2023-10-09T04:40:12;68.39;48.48;81.13;;
81666;Laerm;71083;51.796;10.952;2023-10-09T04:42:45;69.64;58.26;77.53;;
81666;Laerm;71083;51.796;10.952;2023-10-09T04:45:19;65.99;47.83;77.81;;
81666;Laerm;71083;51.796;10.952;2023-10-09T04:47:51;68.95;43.87;79.31;;
81666;Laerm;71083;51.796;10.952;2023-10-09T04:50:24;66.61;45.68;75.65;;
81666;Laerm;71083;51.796;10.952;2023-10-09T04:53:06;69.66;50.58;89.85;;
81666;Laerm;71083;51.796;10.952;2023-10-09T04:55:45;67.08;51.02;76.92;;
81666;Laerm;71083;51.796;10.952;2023-10-09T04:58:11;68.87;51.30;80.01;;
81666;Laerm;71083;51.796;10.952;2023-10-09T05:00:42;69.05;47.24;78.46;;
81666;Laerm;71083;51.796;10.952;2023-10-09T05:03:09;68.73;52.08;79.56;;
81666;Laerm;71083;51.796;10.952;2023-10-09T05:05:51;68.36;46.31;79.95;;
81666;Laerm;71083;51.796;10.952;2023-10-09T05:08:30;67.17;48.31;77.43;;
81666;Laerm;71083;51.796;10.952;2023-10-09T05:11:01;68.86;49.56;81.70;;
81666;Laerm;71083;51.796;10.952;2023-10-09T05:13:33;66.60;47.22;75.74;;
81666;Laerm;71083;51.796;10.952;2023-10-09T05:16:17;67.81;45.21;77.74;;
81666;Laerm;71083;51.796;10.952;2023-10-09T05:18:56;66.88;49.81;75.27;;
81666;Laerm;71083;51.796;10.952;2023-10-09T05:21:37;68.85;56.21;75.26;;
81666;Laerm;71083;51.796;10.952;2023-10-09T05:24:17;69.21;44.71;77.51;;
81666;Laerm;71083;51.796;10.952;2023-10-09T05:26:44;67.22;53.09;76.36;;
81666;Laerm;71083;51.796;10.952;2023-10-09T05:29:18;69.28;52.55;77.62;;
81666;Laerm;71083;51.796;10.952;2023-10-09T05:31:46;68.08;46.80;76.07;;
81666;Laerm;71083;51.796;10.952;2023-10-09T05:34:31;67.29;50.01;75.10;;
81666;Laerm;71083;51.796;10.952;2023-10-09T05:37:03;69.39;47.87;78.78;;
81666;Laerm;71083;51.796;10.952;2023-10-09T05:39:49;68.77;50.38;78.60;;
81666;Laerm;71083;51.796;10.952;2023-10-09T05:42:32;69.20;45.83;80.62;;
81666;Laerm;71083;51.796;10.952;2023-10-09T05:45:13;70.14;45.61;78.14;;
81666;Laerm;71083;51.796;10.952;2023-10-09T05:47:57;69.59;54.97;76.64;;
81666;Laerm;71083;51.796;10.952;2023-10-09T05:50:29;71.36;46.22;85.55;;
81666;Laerm;71083;51.796;10.952;2023-10-09T05:53:02;69.11;54.25;76.71;;
81666;Laerm;71083;51.796;10.952;2023-10-09T05:58:27;70.07;48.83;82.71;;
81666;Laerm;71083;51.796;10.952;2023-10-09T06:01:32;68.49;48.28;76.37;;
81666;Laerm;71083;51.796;10.952;2023-10-09T06:04:15;69.03;50.30;78.17;;
81666;Laerm;71083;51.796;10.952;2023-10-09T06:06:51;70.95;53.51;83.93;;
81666;Laerm;71083;51.796;10.952;2023-10-09T06:09:26;70.00;48.32;85.64;;
81666;Laerm;71083;51.796;10.952;2023-10-09T06:12:18;69.37;47.16;79.42;;
81666;Laerm;71083;51.796;10.952;2023-10-09T06:15:01;70.30;54.29;80.00;;
81666;Laerm;71083;51.796;10.952;2023-10-09T06:17:36;70.75;48.69;82.39;;
81666;Laerm;71083;51.796;10.952;2023-10-09T06:20:15;68.54;44.01;81.39;;
81666;Laerm;71083;51.796;10.952;2023-10-09T06:23:03;69.10;52.73;79.94;;
81666;Laerm;71083;51.796;10.952;2023-10-09T06:25:42;70.16;56.85;78.83;;
81666;Laerm;71083;51.796;10.952;2023-10-09T06:28:18;71.99;54.92;81.78;;
81666;Laerm;71083;51.796;10.952;2023-10-09T06:31:03;71.01;49.92;78.82;;
81666;Laerm;71083;51.796;10.952;2023-10-09T06:33:35;71.50;47.36;79.01;;
81666;Laerm;71083;51.796;10.952;2023-10-09T06:36:28;71.35;58.10;80.59;;
81666;Laerm;71083;51.796;10.952;2023-10-09T06:38:58;71.70;50.22;80.94;;
81666;Laerm;71083;51.796;10.952;2023-10-09T06:41:44;69.87;53.94;77.31;;
81666;Laerm;71083;51.796;10.952;2023-10-09T06:44:30;68.36;47.34;76.54;;
81666;Laerm;71083;51.796;10.952;2023-10-09T06:47:18;70.46;54.01;82.41;;
81666;Laerm;71083;51.796;10.952;2023-10-09T06:49:51;70.73;49.47;81.86;;
81666;Laerm;71083;51.796;10.952;2023-10-09T06:52:45;71.29;50.70;81.62;;
81666;Laerm;71083;51.796;10.952;2023-10-09T06:55:27;67.15;46.66;79.30;;
81666;Laerm;71083;51.796;10.952;2023-10-09T06:58:03;69.34;48.97;75.77;;
81666;Laerm;71083;51.796;10.952;2023-10-09T07:00:41;70.69;48.84;82.29;;
81666;Laerm;71083;51.796;10.952;2023-10-09T07:03:27;70.59;51.61;79.77;;
81666;Laerm;71083;51.796;10.952;2023-10-09T07:09:06;71.07;46.05;80.90;;
81666;Laerm;71083;51.796;10.952;2023-10-09T07:11:40;70.51;53.45;78.49;;
81666;Laerm;71083;51.796;10.952;2023-10-09T07:17:01;69.62;52.31;78.87;;
81666;Laerm;71083;51.796;10.952;2023-10-09T07:19:34;71.31;52.70;81.58;;
81666;Laerm;71083;51.796;10.952;2023-10-09T07:22:01;70.78;54.90;78.32;;
81666;Laerm;71083;51.796;10.952;2023-10-09T07:24:33;77.94;52.70;96.50;;
81666;Laerm;71083;51.796;10.952;2023-10-09T07:27:16;71.25;50.64;79.17;;
81666;Laerm;71083;51.796;10.952;2023-10-09T07:29:47;69.14;45.99;77.68;;
81666;Laerm;71083;51.796;10.952;2023-10-09T07:32:22;70.47;52.76;77.08;;
81666;Laerm;71083;51.796;10.952;2023-10-09T07:34:50;71.22;52.48;80.74;;
81666;Laerm;71083;51.796;10.952;2023-10-09T07:37:21;71.50;51.36;78.83;;
81666;Laerm;71083;51.796;10.952;2023-10-09T07:39:50;71.37;56.91;78.65;;
81666;Laerm;71083;51.796;10.952;2023-10-09T07:42:23;72.74;60.82;84.67;;
81666;Laerm;71083;51.796;10.952;2023-10-09T07:44:56;70.53;46.79;79.13;;
81666;Laerm;71083;51.796;10.952;2023-10-09T07:47:29;70.99;55.58;77.72;;
81666;Laerm;71083;51.796;10.952;2023-10-09T07:50:06;70.85;51.78;80.60;;
81666;Laerm;71083;51.796;10.952;2023-10-09T07:52:36;71.38;58.43;80.24;;
81666;Laerm;71083;51.796;10.952;2023-10-09T07:55:13;68.75;44.66;76.91;;
81666;Laerm;71083;51.796;10.952;2023-10-09T07:57:42;72.33;56.93;81.73;;
81666;Laerm;71083;51.796;10.952;2023-10-09T08:00:09;72.22;54.45;79.97;;
81666;Laerm;71083;51.796;10.952;2023-10-09T08:02:59;71.48;54.56;78.72;;
81666;Laerm;71083;51.796;10.952;2023-10-09T08:05:31;72.23;53.81;83.16;;
81666;Laerm;71083;51.796;10.952;2023-10-09T08:08:00;71.01;53.94;78.76;;
81666;Laerm;71083;51.796;10.952;2023-10-09T08:10:52;71.56;53.71;82.65;;
81666;Laerm;71083;51.796;10.952;2023-10-09T08:13:40;71.10;57.30;78.50;;
81666;Laerm;71083;51.796;10.952;2023-10-09T08:16:16;69.53;56.40;80.32;;
81666;Laerm;71083;51.796;10.952;2023-10-09T08:18:54;70.59;54.11;77.94;;
81666;Laerm;71083;51.796;10.952;2023-10-09T08:21:21;71.37;60.54;77.30;;
81666;Laerm;71083;51.796;10.952;2023-10-09T08:24:08;71.09;49.89;82.76;;
81666;Laerm;71083;51.796;10.952;2023-10-09T08:26:55;72.90;57.03;81.34;;
81666;Laerm;71083;51.796;10.952;2023-10-09T08:29:43;72.12;54.35;82.85;;
81666;Laerm;71083;51.796;10.952;2023-10-09T08:32:15;71.43;55.71;78.85;;
81666;Laerm;71083;51.796;10.952;2023-10-09T08:34:44;70.76;55.57;78.85;;
81666;Laerm;71083;51.796;10.952;2023-10-09T08:37:14;70.38;56.87;78.84;;
81666;Laerm;71083;51.796;10.952;2023-10-09T08:39:42;71.77;51.88;80.78;;
81666;Laerm;71083;51.796;10.952;2023-10-09T08:42:11;74.07;56.67;84.31;;
81666;Laerm;71083;51.796;10.952;2023-10-09T08:44:37;72.28;57.27;84.03;;
81666;Laerm;71083;51.796;10.952;2023-10-09T08:47:07;70.52;51.92;79.82;;
81666;Laerm;71083;51.796;10.952;2023-10-09T08:49:35;71.11;54.24;84.84;;
81666;Laerm;71083;51.796;10.952;2023-10-09T08:52:02;70.12;57.45;77.89;;
81666;Laerm;71083;51.796;10.952;2023-10-09T08:54:29;72.37;61.18;82.85;;
81666;Laerm;71083;51.796;10.952;2023-10-09T08:57:02;72.82;55.09;82.29;;
81666;Laerm;71083;51.796;10.952;2023-10-09T08:59:29;72.33;56.50;78.87;;
81666;Laerm;71083;51.796;10.952;2023-10-09T09:01:56;72.32;61.73;81.53;;
81666;Laerm;71083;51.796;10.952;2023-10-09T09:04:33;70.54;56.31;78.79;;
81666;Laerm;71083;51.796;10.952;2023-10-09T09:07:47;71.55;57.11;81.54;;
81666;Laerm;71083;51.796;10.952;2023-10-09T09:09:59;70.87;59.91;77.29;;
81666;Laerm;71083;51.796;10.952;2023-10-09T09:12:45;70.99;51.95;83.21;;
81666;Laerm;71083;51.796;10.952;2023-10-09T09:15:15;71.73;52.48;84.18;;
81666;Laerm;71083;51.796;10.952;2023-10-09T09:17:43;70.25;59.10;77.86;;
81666;Laerm;71083;51.796;10.952;2023-10-09T09:20:24;69.23;53.67;76.38;;
81666;Laerm;71083;51.796;10.952;2023-10-09T09:22:55;70.43;54.77;76.69;;
81666;Laerm;71083;51.796;10.952;2023-10-09T09:25:40;68.65;49.00;77.20;;
81666;Laerm;71083;51.796;10.952;2023-10-09T09:28:20;70.42;52.13;81.49;;
81666;Laerm;71083;51.796;10.952;2023-10-09T09:30:47;70.44;50.04;82.77;;
81666;Laerm;71083;51.796;10.952;2023-10-09T09:33:16;81.12;58.39;99.26;;
81666;Laerm;71083;51.796;10.952;2023-10-09T09:35:59;88.76;52.96;105.47;;
81666;Laerm;71083;51.796;10.952;2023-10-09T09:38:30;69.97;53.07;78.18;;
81666;Laerm;71083;51.796;10.952;2023-10-09T09:41:20;87.48;53.09;103.60;;
81666;Laerm;71083;51.796;10.952;2023-10-09T09:43:58;69.12;55.03;80.58;;
81666;Laerm;71083;51.796;10.952;2023-10-09T09:46:33;67.74;51.00;74.61;;
81666;Laerm;71083;51.796;10.952;2023-10-09T09:49:03;69.64;54.12;77.98;;
81666;Laerm;71083;51.796;10.952;2023-10-09T09:51:33;69.33;55.46;78.26;;
81666;Laerm;71083;51.796;10.952;2023-10-09T09:54:03;69.11;54.41;78.26;;
81666;Laerm;71083;51.796;10.952;2023-10-09T09:56:31;70.33;54.93;81.20;;
81666;Laerm;71083;51.796;10.952;2023-10-09T09:59:01;69.62;53.29;76.48;;
81666;Laerm;71083;51.796;10.952;2023-10-09T10:01:32;72.58;55.46;84.48;;
81666;Laerm;71083;51.796;10.952;2023-10-09T10:04:04;69.74;52.98;75.61;;
81666;Laerm;71083;51.796;10.952;2023-10-09T10:06:35;70.15;48.92;81.58;;
81666;Laerm;71083;51.796;10.952;2023-10-09T10:09:11;68.17;48.57;76.43;;
81666;Laerm;71083;51.796;10.952;2023-10-09T10:11:59;69.75;46.19;78.91;;
81666;Laerm;71083;51.796;10.952;2023-10-09T10:14:54;70.78;54.26;83.34;;
81666;Laerm;71083;51.796;10.952;2023-10-09T10:21:02;69.15;50.17;75.94;;
81666;Laerm;71083;51.796;10.952;2023-10-09T10:26:43;69.32;48.42;76.40;;
81666;Laerm;71083;51.796;10.952;2023-10-09T10:29:13;69.81;55.95;78.01;;
81666;Laerm;71083;51.796;10.952;2023-10-09T10:31:53;67.69;47.81;75.09;;
81666;Laerm;71083;51.796;10.952;2023-10-09T10:34:25;68.65;48.19;77.18;;
81666;Laerm;71083;51.796;10.952;2023-10-09T10:36:52;68.52;45.34;74.61;;
81666;Laerm;71083;51.796;10.952;2023-10-09T10:39:25;68.86;52.36;78.70;;
81666;Laerm;71083;51.796;10.952;2023-10-09T10:41:57;67.66;50.99;76.86;;
81666;Laerm;71083;51.796;10.952;2023-10-09T10:44:33;70.03;45.28;80.44;;
81666;Laerm;71083;51.796;10.952;2023-10-09T10:47:08;69.26;47.18;77.66;;
81666;Laerm;71083;51.796;10.952;2023-10-09T10:49:53;69.12;56.31;76.81;;
81666;Laerm;71083;51.796;10.952;2023-10-09T10:52:30;69.03;49.96;76.64;;
81666;Laerm;71083;51.796;10.952;2023-10-09T10:55:12;71.14;52.56;80.41;;
81666;Laerm;71083;51.796;10.952;2023-10-09T10:58:03;72.17;54.80;79.96;;
81666;Laerm;71083;51.796;10.952;2023-10-09T11:00:51;72.16;53.90;78.45;;
81666;Laerm;71083;51.796;10.952;2023-10-09T11:03:27;75.71;62.22;84.05;;
81666;Laerm;71083;51.796;10.952;2023-10-09T11:06:00;73.73;54.99;81.26;;
81666;Laerm;71083;51.796;10.952;2023-10-09T11:08:27;74.05;59.79;82.00;;
81666;Laerm;71083;51.796;10.952;2023-10-09T11:10:53;74.39;53.69;80.63;;
81666;Laerm;71083;51.796;10.952;2023-10-09T11:13:46;71.94;53.06;83.27;;
81666;Laerm;71083;51.796;10.952;2023-10-09T11:16:13;72.10;52.61;81.08;;
81666;Laerm;71083;51.796;10.952;2023-10-09T11:18:44;73.42;55.47;80.95;;
81666;Laerm;71083;51.796;10.952;2023-10-09T11:21:15;71.77;53.85;79.51;;
81666;Laerm;71083;51.796;10.952;2023-10-09T11:23:41;73.02;56.60;79.26;;
81666;Laerm;71083;51.796;10.952;2023-10-09T11:26:22;73.30;57.21;84.71;;
81666;Laerm;71083;51.796;10.952;2023-10-09T11:31:57;73.53;56.01;81.75;;
81666;Laerm;71083;51.796;10.952;2023-10-09T11:34:29;73.41;49.23;80.38;;
81666;Laerm;71083;51.796;10.952;2023-10-09T11:36:59;73.03;51.47;81.57;;
81666;Laerm;71083;51.796;10.952;2023-10-09T11:39:31;73.63;58.19;79.77;;
81666;Laerm;71083;51.796;10.952;2023-10-09T11:42:05;71.52;51.59;78.38;;
81666;Laerm;71083;51.796;10.952;2023-10-09T11:44:37;73.71;49.03;83.19;;
81666;Laerm;71083;51.796;10.952;2023-10-09T11:47:15;73.08;56.26;80.56;;
81666;Laerm;71083;51.796;10.952;2023-10-09T11:52:19;74.57;61.20;86.39;;
81666;Laerm;71083;51.796;10.952;2023-10-09T11:55:02;74.60;63.24;80.98;;
81666;Laerm;71083;51.796;10.952;2023-10-09T11:57:30;74.34;55.70;81.00;;
81666;Laerm;71083;51.796;10.952;2023-10-09T12:00:02;73.42;48.55;85.55;;
81666;Laerm;71083;51.796;10.952;2023-10-09T12:02:50;73.72;56.25;83.97;;
81666;Laerm;71083;51.796;10.952;2023-10-09T12:05:18;71.60;47.33;81.43;;
81666;Laerm;71083;51.796;10.952;2023-10-09T12:07:56;71.52;50.84;80.02;;
81666;Laerm;71083;51.796;10.952;2023-10-09T12:10:34;72.72;57.99;80.52;;
81666;Laerm;71083;51.796;10.952;2023-10-09T12:13:06;72.47;54.28;80.59;;
81666;Laerm;71083;51.796;10.952;2023-10-09T12:15:34;71.76;53.80;78.94;;
81666;Laerm;71083;51.796;10.952;2023-10-09T12:18:07;71.84;56.75;77.09;;
81666;Laerm;71083;51.796;10.952;2023-10-09T12:20:36;72.13;52.49;80.97;;
81666;Laerm;71083;51.796;10.952;2023-10-09T12:23:12;72.49;47.80;80.44;;
81666;Laerm;71083;51.796;10.952;2023-10-09T12:25:41;71.29;46.22;78.50;;
81666;Laerm;71083;51.796;10.952;2023-10-09T12:28:12;71.62;55.28;78.42;;
81666;Laerm;71083;51.796;10.952;2023-10-09T12:30:44;72.82;59.77;80.31;;
81666;Laerm;71083;51.796;10.952;2023-10-09T12:33:19;72.65;47.24;79.58;;
81666;Laerm;71083;51.796;10.952;2023-10-09T12:36:00;71.50;49.47;80.16;;
81666;Laerm;71083;51.796;10.952;2023-10-09T12:38:27;72.48;56.00;80.24;;
81666;Laerm;71083;51.796;10.952;2023-10-09T12:41:01;71.91;46.90;78.79;;
81666;Laerm;71083;51.796;10.952;2023-10-09T12:43:33;72.48;52.52;80.03;;
81666;Laerm;71083;51.796;10.952;2023-10-09T12:46:03;72.82;52.48;78.58;;
81666;Laerm;71083;51.796;10.952;2023-10-09T12:48:34;71.83;48.94;80.66;;
81666;Laerm;71083;51.796;10.952;2023-10-09T12:51:04;71.58;47.15;81.89;;
81666;Laerm;71083;51.796;10.952;2023-10-09T12:53:36;74.03;61.73;87.17;;
81666;Laerm;71083;51.796;10.952;2023-10-09T12:56:05;73.50;52.14;80.37;;
81666;Laerm;71083;51.796;10.952;2023-10-09T12:58:34;73.71;48.89;82.43;;
81666;Laerm;71083;51.796;10.952;2023-10-09T13:01:10;75.22;57.79;85.12;;
81666;Laerm;71083;51.796;10.952;2023-10-09T13:03:40;74.12;54.28;83.49;;
81666;Laerm;71083;51.796;10.952;2023-10-09T13:06:13;71.91;57.28;78.56;;
81666;Laerm;71083;51.796;10.952;2023-10-09T13:08:43;73.15;58.81;82.75;;
81666;Laerm;71083;51.796;10.952;2023-10-09T13:11:10;71.70;56.96;77.38;;
81666;Laerm;71083;51.796;10.952;2023-10-09T13:13:40;73.85;60.40;84.04;;
81666;Laerm;71083;51.796;10.952;2023-10-09T13:16:20;70.79;54.80;78.40;;
81666;Laerm;71083;51.796;10.952;2023-10-09T13:18:56;71.82;57.28;79.35;;
81666;Laerm;71083;51.796;10.952;2023-10-09T13:21:25;71.44;45.95;83.25;;
81666;Laerm;71083;51.796;10.952;2023-10-09T13:24:07;72.72;52.20;83.80;;
81666;Laerm;71083;51.796;10.952;2023-10-09T13:26:57;72.48;48.55;83.40;;
81666;Laerm;71083;51.796;10.952;2023-10-09T13:29:30;70.71;58.13;77.74;;
81666;Laerm;71083;51.796;10.952;2023-10-09T13:31:59;71.70;47.30;78.04;;
81666;Laerm;71083;51.796;10.952;2023-10-09T13:34:32;71.92;49.88;80.29;;
81666;Laerm;71083;51.796;10.952;2023-10-09T13:37:08;70.59;50.25;78.93;;
81666;Laerm;71083;51.796;10.952;2023-10-09T13:39:40;70.11;60.68;78.88;;
81666;Laerm;71083;51.796;10.952;2023-10-09T13:42:20;71.11;49.68;75.96;;
81666;Laerm;71083;51.796;10.952;2023-10-09T13:44:47;71.77;56.56;84.34;;
81666;Laerm;71083;51.796;10.952;2023-10-09T13:47:18;72.43;55.59;77.27;;
81666;Laerm;71083;51.796;10.952;2023-10-09T13:49:50;72.08;55.43;82.60;;
81666;Laerm;71083;51.796;10.952;2023-10-09T13:52:22;72.62;60.38;82.41;;
81666;Laerm;71083;51.796;10.952;2023-10-09T13:54:54;71.61;62.38;78.10;;
81666;Laerm;71083;51.796;10.952;2023-10-09T13:57:24;72.65;57.12;78.77;;
81666;Laerm;71083;51.796;10.952;2023-10-09T14:00:04;72.29;52.44;78.50;;
81666;Laerm;71083;51.796;10.952;2023-10-09T14:02:30;72.08;59.62;78.32;;
81666;Laerm;71083;51.796;10.952;2023-10-09T14:05:01;70.53;48.54;78.14;;
81666;Laerm;71083;51.796;10.952;2023-10-09T14:07:28;72.10;55.83;78.58;;
81666;Laerm;71083;51.796;10.952;2023-10-09T14:10:01;71.02;51.78;79.12;;
81666;Laerm;71083;51.796;10.952;2023-10-09T14:12:35;72.96;55.91;83.69;;
81666;Laerm;71083;51.796;10.952;2023-10-09T14:15:10;71.00;50.46;78.79;;
81666;Laerm;71083;51.796;10.952;2023-10-09T14:17:42;71.94;58.15;78.52;;
81666;Laerm;71083;51.796;10.952;2023-10-09T14:20:10;72.37;53.78;81.50;;
81666;Laerm;71083;51.796;10.952;2023-10-09T14:23:17;71.47;52.37;77.29;;
81666;Laerm;71083;51.796;10.952;2023-10-09T14:25:55;70.28;56.20;75.54;;
81666;Laerm;71083;51.796;10.952;2023-10-09T14:28:23;70.22;52.73;75.82;;
81666;Laerm;71083;51.796;10.952;2023-10-09T14:30:57;70.38;55.35;77.56;;